createdAt,value
2018-03-27T00:01:53.761Z,34.60
2018-03-27T00:04:22.328Z,39.17
2018-03-27T00:06:51.256Z,47.53
2018-03-27T00:09:19.814Z,45.80
2018-03-27T00:11:48.380Z,42.37
2018-03-27T00:14:17.750Z,47.13
2018-03-27T00:16:46.313Z,44.80
2018-03-27T00:19:14.876Z,40.43
2018-03-27T00:21:43.482Z,43.13
2018-03-27T00:24:12.049Z,41.80
2018-03-27T00:26:58.359Z,45.47
2018-03-27T00:29:44.714Z,57.50
2018-03-27T00:32:31.044Z,50.37
2018-03-27T00:35:17.199Z,44.70
2018-03-27T00:38:04.268Z,44.20
2018-03-27T00:40:43.041Z,57.27
2018-03-27T00:43:13.521Z,55.10
2018-03-27T00:45:42.180Z,49.30
2018-03-27T00:48:10.732Z,47.17
2018-03-27T00:50:40.240Z,42.60
2018-03-27T00:53:09.568Z,39.70
2018-03-27T00:55:38.137Z,32.63
2018-03-27T00:58:06.737Z,35.60
2018-03-27T01:00:35.308Z,27.83
2018-03-27T01:03:03.869Z,33.33
2018-03-27T01:05:33.240Z,29.67
2018-03-27T01:08:01.817Z,32.40
2018-03-27T01:10:30.393Z,29.03
2018-03-27T01:12:58.997Z,31.30
2018-03-27T01:15:27.568Z,29.47
2018-03-27T01:17:56.124Z,30.90
2018-03-27T01:20:25.136Z,47.73
2018-03-27T01:22:53.689Z,48.30
2018-03-27T01:25:22.248Z,47.77
2018-03-27T01:27:51.768Z,45.93
2018-03-27T01:30:20.336Z,44.70
2018-03-27T01:32:49.656Z,41.60
2018-03-27T01:35:18.471Z,47.03
2018-03-27T01:37:47.028Z,49.40
2018-03-27T01:40:15.600Z,44.10
2018-03-27T01:42:45.147Z,37.80
2018-03-27T01:45:13.704Z,44.73
2018-03-27T01:47:42.273Z,52.63
2018-03-27T01:50:12.648Z,48.23
2018-03-27T01:52:41.196Z,43.67
2018-03-27T01:55:09.763Z,41.50
2018-03-27T01:57:38.399Z,40.00
2018-03-27T02:00:07.016Z,44.47
2018-03-27T02:02:36.352Z,30.67
2018-03-27T02:05:05.024Z,41.77
2018-03-27T02:07:33.597Z,37.93
2018-03-27T02:10:02.920Z,384.90
2018-03-27T02:12:37.062Z,441.63
2018-03-27T02:15:11.033Z,458.27
2018-03-27T02:17:45.140Z,277.33
2018-03-27T02:20:19.216Z,310.10
2018-03-27T02:25:53.095Z,313.47
2018-03-27T02:28:21.710Z,173.00
2018-03-27T02:30:50.272Z,225.67
2018-03-27T02:33:18.878Z,192.83
2018-03-27T02:35:47.762Z,148.83
2018-03-27T02:38:16.336Z,115.37
2018-03-27T02:40:44.892Z,119.57
2018-03-27T02:43:14.304Z,130.93
2018-03-27T02:45:42.877Z,201.57
2018-03-27T02:48:12.204Z,180.80
2018-03-27T02:50:41.936Z,322.87
2018-03-27T02:53:10.501Z,397.07
2018-03-27T02:55:39.066Z,147.47
2018-03-27T02:58:07.868Z,139.43
2018-03-27T03:00:36.436Z,79.97
2018-03-27T03:03:04.996Z,129.80
2018-03-27T03:05:34.770Z,149.67
2018-03-27T03:08:03.343Z,71.80
2018-03-27T03:10:31.949Z,107.57
2018-03-27T03:13:00.573Z,83.27
2018-03-27T03:15:29.901Z,85.10
2018-03-27T03:17:58.499Z,82.03
2018-03-27T03:20:27.117Z,84.03
2018-03-27T03:22:56.448Z,71.47
2018-03-27T03:25:25.005Z,107.50
2018-03-27T03:27:54.528Z,85.80
2018-03-27T03:30:23.854Z,44.07
2018-03-27T03:32:52.417Z,62.43
2018-03-27T03:35:21.120Z,63.23
2018-03-27T03:37:49.685Z,61.63
2018-03-27T03:40:18.255Z,84.83
2018-03-27T03:42:47.814Z,106.73
2018-03-27T03:45:16.395Z,111.00
2018-03-27T03:47:44.953Z,249.67
2018-03-27T03:50:13.708Z,112.60
2018-03-27T03:52:43.033Z,99.20
2018-03-27T03:55:11.608Z,70.37
2018-03-27T03:57:40.976Z,56.90
2018-03-27T04:00:09.556Z,56.53
2018-03-27T04:02:38.127Z,56.57
2018-03-27T04:05:07.127Z,55.73
2018-03-27T04:07:35.696Z,56.10
2018-03-27T04:10:04.329Z,96.50
2018-03-27T04:12:33.707Z,78.00
2018-03-27T04:15:02.272Z,77.23
2018-03-27T04:17:30.853Z,66.27
2018-03-27T04:19:59.641Z,62.90
2018-03-27T04:22:28.221Z,46.80
2018-03-27T04:24:56.789Z,47.63
2018-03-27T04:27:25.413Z,52.23
2018-03-27T04:29:53.980Z,92.43
2018-03-27T04:32:22.592Z,106.03
2018-03-27T04:34:51.984Z,92.50
2018-03-27T04:37:20.547Z,64.97
2018-03-27T04:39:49.108Z,64.57
2018-03-27T04:42:17.723Z,54.50
2018-03-27T04:47:26.277Z,64.20
2018-03-27T04:49:54.848Z,66.03
2018-03-27T04:52:23.419Z,63.80
2018-03-27T04:55:25.171Z,69.23
2018-03-27T04:57:53.733Z,68.00
2018-03-27T05:00:22.295Z,65.17
2018-03-27T05:02:50.955Z,67.90
2018-03-27T05:05:19.561Z,72.80
2018-03-27T05:07:48.132Z,90.57
2018-03-27T05:10:17.509Z,87.10
2018-03-27T05:12:46.074Z,83.70
2018-03-27T05:15:14.640Z,82.80
2018-03-27T05:17:43.649Z,66.53
2018-03-27T05:20:12.273Z,73.40
2018-03-27T05:22:41.645Z,58.50
2018-03-27T05:25:10.282Z,75.63
2018-03-27T05:27:38.859Z,66.10
2018-03-27T05:30:07.432Z,75.53
2018-03-27T05:32:36.816Z,77.03
2018-03-27T05:35:05.387Z,63.73
2018-03-27T05:37:33.965Z,73.47
2018-03-27T05:40:02.608Z,81.47
2018-03-27T05:42:31.181Z,71.83
2018-03-27T05:45:00.535Z,68.87
2018-03-27T05:47:29.304Z,72.23
2018-03-27T05:49:57.868Z,66.13
2018-03-27T05:52:26.441Z,53.23
2018-03-27T05:54:55.256Z,55.43
2018-03-27T05:57:23.832Z,51.10
2018-03-27T05:59:52.448Z,155.43
2018-03-27T06:02:21.836Z,83.93
2018-03-27T06:04:50.404Z,59.77
2018-03-27T06:07:18.992Z,64.50
2018-03-27T06:09:47.962Z,59.57
2018-03-27T06:12:16.536Z,46.10
2018-03-27T06:14:45.109Z,46.00
2018-03-27T06:17:14.587Z,57.70
2018-03-27T06:19:43.194Z,61.30
2018-03-27T06:22:12.524Z,43.83
2018-03-27T06:24:41.308Z,53.10
2018-03-27T06:27:09.876Z,49.83
2018-03-27T06:29:38.448Z,57.33
2018-03-27T06:32:07.169Z,49.10
2018-03-27T06:34:36.520Z,47.47
2018-03-27T06:37:05.103Z,45.37
2018-03-27T06:39:33.829Z,60.00
2018-03-27T06:42:02.457Z,50.83
2018-03-27T06:44:31.017Z,47.40
2018-03-27T06:47:00.498Z,58.63
2018-03-27T06:49:29.065Z,90.33
2018-03-27T06:51:57.641Z,46.00
2018-03-27T06:54:26.545Z,40.50
2018-03-27T06:56:55.321Z,40.27
2018-03-27T06:59:23.893Z,42.53
2018-03-27T07:01:52.605Z,52.97
2018-03-27T07:04:21.184Z,37.70
2018-03-27T07:06:49.761Z,41.00
2018-03-27T07:09:19.398Z,45.93
2018-03-27T07:11:48.005Z,41.53
2018-03-27T07:14:16.599Z,42.77
2018-03-27T07:16:45.449Z,34.27
2018-03-27T07:19:14.106Z,39.50
2018-03-27T07:21:42.677Z,42.60
2018-03-27T07:24:11.303Z,48.37
2018-03-27T07:26:39.868Z,42.00
2018-03-27T07:29:08.466Z,41.33
2018-03-27T07:31:38.045Z,54.47
2018-03-27T07:34:06.616Z,48.27
2018-03-27T07:36:35.193Z,41.00
2018-03-27T07:39:04.102Z,127.27
2018-03-27T07:41:32.673Z,68.07
2018-03-27T07:44:01.248Z,90.77
2018-03-27T07:46:29.868Z,62.87
2018-03-27T07:48:58.448Z,63.37
2018-03-27T07:51:27.023Z,76.40
2018-03-27T07:53:55.641Z,55.53
2018-03-27T07:56:25.002Z,65.07
2018-03-27T07:58:53.573Z,70.43
2018-03-27T08:01:22.381Z,52.70
2018-03-27T08:03:50.961Z,50.70
2018-03-27T08:06:19.544Z,49.57
2018-03-27T08:08:48.437Z,54.23
2018-03-27T08:11:17.046Z,43.73
2018-03-27T08:13:45.660Z,41.37
2018-03-27T08:16:14.438Z,43.63
2018-03-27T08:18:43.799Z,39.60
2018-03-27T08:21:12.386Z,38.10
2018-03-27T08:23:41.014Z,37.33
2018-03-27T08:26:10.373Z,37.23
2018-03-27T08:28:39.081Z,36.87
2018-03-27T08:31:08.508Z,35.80
2018-03-27T08:33:37.865Z,36.70
2018-03-27T08:36:06.441Z,38.30
2018-03-27T08:38:35.227Z,38.97
2018-03-27T08:41:04.637Z,35.57
2018-03-27T08:43:33.216Z,39.73
2018-03-27T08:46:01.896Z,41.00
2018-03-27T08:48:30.485Z,32.40
2018-03-27T08:50:59.072Z,39.27
2018-03-27T08:53:27.845Z,42.07
2018-03-27T08:55:56.421Z,40.23
2018-03-27T08:58:24.993Z,36.33
2018-03-27T09:00:53.620Z,40.83
2018-03-27T09:03:22.198Z,35.07
2018-03-27T09:05:50.807Z,32.13
2018-03-27T09:08:19.617Z,33.53
2018-03-27T09:10:48.208Z,34.77
2018-03-27T09:13:16.788Z,30.37
2018-03-27T09:15:45.518Z,32.43
2018-03-27T09:18:14.129Z,31.47
2018-03-27T09:20:42.707Z,30.87
2018-03-27T09:23:11.677Z,29.87
2018-03-27T09:25:40.265Z,33.17
2018-03-27T09:28:09.610Z,24.87
2018-03-27T09:30:39.164Z,26.40
2018-03-27T09:33:07.754Z,28.03
2018-03-27T09:35:36.382Z,27.53
2018-03-27T09:38:05.940Z,27.77
2018-03-27T09:40:34.512Z,28.37
2018-03-27T09:43:03.090Z,31.57
2018-03-27T09:45:31.954Z,26.37
2018-03-27T09:48:01.274Z,33.80
2018-03-27T09:50:29.844Z,32.07
2018-03-27T09:52:58.640Z,24.93
2018-03-27T09:55:27.976Z,23.43
2018-03-27T09:57:56.552Z,19.60
2018-03-27T10:00:31.791Z,25.67
2018-03-27T10:03:00.369Z,30.83
2018-03-27T10:05:28.953Z,21.97
2018-03-27T10:07:57.580Z,34.10
2018-03-27T10:10:26.917Z,20.63
2018-03-27T10:12:55.497Z,29.17
2018-03-27T10:15:24.209Z,17.43
2018-03-27T10:17:52.789Z,20.40
2018-03-27T10:20:21.379Z,23.93
2018-03-27T10:22:50.039Z,39.90
2018-03-27T10:25:18.622Z,19.53
2018-03-27T10:27:47.193Z,22.63
2018-03-27T10:30:15.848Z,23.87
2018-03-27T10:32:44.420Z,19.73
2018-03-27T10:35:13.009Z,44.77
2018-03-27T10:37:41.881Z,25.30
2018-03-27T10:40:10.469Z,20.73
2018-03-27T10:42:39.040Z,26.27
2018-03-27T10:45:08.038Z,25.90
2018-03-27T10:47:37.377Z,39.50
2018-03-27T10:50:06.720Z,23.20
2018-03-27T10:52:35.345Z,26.63
2018-03-27T10:55:03.956Z,34.27
2018-03-27T10:57:33.305Z,27.37
2018-03-27T11:00:01.959Z,21.33
2018-03-27T11:02:30.533Z,31.93
2018-03-27T11:04:59.108Z,32.30
2018-03-27T11:07:28.665Z,29.63
2018-03-27T11:09:57.295Z,43.80
2018-03-27T11:12:26.659Z,31.13
2018-03-27T11:14:55.285Z,31.63
2018-03-27T11:17:24.636Z,31.87
2018-03-27T11:19:53.221Z,32.83
2018-03-27T11:22:21.859Z,34.93
2018-03-27T11:24:50.438Z,32.47
2018-03-27T11:27:19.778Z,39.60
2018-03-27T11:29:48.545Z,38.80
2018-03-27T11:32:17.132Z,33.80
2018-03-27T11:34:45.724Z,30.40
2018-03-27T11:37:14.539Z,27.60
2018-03-27T11:39:43.117Z,37.10
2018-03-27T11:42:11.700Z,29.30
2018-03-27T11:44:40.437Z,29.40
2018-03-27T11:47:09.777Z,32.13
2018-03-27T11:49:38.352Z,29.40
2018-03-27T11:52:07.126Z,24.73
2018-03-27T11:54:35.790Z,27.20
2018-03-27T11:57:05.149Z,20.13
2018-03-27T11:59:34.753Z,24.90
2018-03-27T12:02:03.397Z,19.30
2018-03-27T12:04:32.744Z,23.53
2018-03-27T12:07:01.396Z,25.33
2018-03-27T12:09:29.981Z,26.40
2018-03-27T12:11:58.560Z,25.40
2018-03-27T12:14:27.285Z,27.17
2018-03-27T12:16:55.866Z,22.90
2018-03-27T12:19:24.445Z,20.03
2018-03-27T12:21:53.068Z,27.17
2018-03-27T12:24:22.438Z,22.43
2018-03-27T12:26:51.013Z,16.80
2018-03-27T12:29:19.644Z,16.80
2018-03-27T12:31:48.986Z,22.63
2018-03-27T12:34:17.566Z,22.00
2018-03-27T12:36:46.309Z,16.73
2018-03-27T12:39:15.657Z,20.43
2018-03-27T12:41:44.218Z,25.67
2018-03-27T12:44:12.917Z,22.87
2018-03-27T12:46:41.476Z,24.30
2018-03-27T12:49:10.801Z,20.57
2018-03-27T12:51:39.417Z,22.67
2018-03-27T12:54:07.977Z,27.40
2018-03-27T12:56:36.541Z,21.63
2018-03-27T12:59:05.495Z,18.83
2018-03-27T13:01:34.058Z,17.33
2018-03-27T13:04:02.616Z,18.77
2018-03-27T13:06:31.229Z,21.90
2018-03-27T13:08:59.809Z,21.87
2018-03-27T13:11:28.368Z,27.97
2018-03-27T13:13:56.981Z,19.53
2018-03-27T13:16:25.536Z,14.90
2018-03-27T13:18:54.090Z,12.23
2018-03-27T13:21:22.706Z,14.70
2018-03-27T13:23:51.257Z,13.57
2018-03-27T13:26:20.577Z,32.87
2018-03-27T13:28:49.186Z,21.67
2018-03-27T13:31:17.738Z,14.43
2018-03-27T13:33:46.300Z,34.63
2018-03-27T13:36:15.700Z,13.67
2018-03-27T13:38:45.018Z,13.43
2018-03-27T13:41:13.574Z,10.83
2018-03-27T13:43:42.957Z,13.13
2018-03-27T13:46:11.524Z,17.50
2018-03-27T13:48:40.080Z,17.90
2018-03-27T13:51:08.697Z,15.13
2018-03-27T13:53:37.252Z,14.77
2018-03-27T13:56:05.817Z,27.23
2018-03-27T13:58:34.432Z,18.40
2018-03-27T14:01:02.994Z,18.67
2018-03-27T14:03:31.554Z,9.47
2018-03-27T14:06:00.962Z,13.50
2018-03-27T14:08:29.521Z,11.97
2018-03-27T14:10:58.096Z,41.40
2018-03-27T14:13:26.800Z,12.50
2018-03-27T14:15:56.125Z,11.87
2018-03-27T14:18:24.687Z,23.07
2018-03-27T14:20:54.053Z,14.43
2018-03-27T14:23:22.609Z,11.17
2018-03-27T14:25:51.165Z,10.80
2018-03-27T14:28:20.621Z,18.80
2018-03-27T14:30:49.210Z,20.77
2018-03-27T14:33:17.776Z,25.10
2018-03-27T14:35:46.386Z,13.37
2018-03-27T14:38:14.996Z,11.30
2018-03-27T14:40:44.321Z,13.80
2018-03-27T14:43:13.142Z,22.53
2018-03-27T14:45:41.705Z,19.27
2018-03-27T14:48:10.266Z,18.27
2018-03-27T14:50:38.870Z,15.77
2018-03-27T14:53:07.489Z,11.90
2018-03-27T14:55:36.059Z,16.63
2018-03-27T14:58:04.763Z,10.33
2018-03-27T15:00:33.325Z,9.93
2018-03-27T15:03:01.861Z,16.13
2018-03-27T15:05:31.374Z,15.27
2018-03-27T15:07:59.937Z,21.33
2018-03-27T15:10:29.257Z,25.83
2018-03-27T15:12:57.864Z,19.40
2018-03-27T15:15:26.422Z,36.10
2018-03-27T15:17:55.750Z,26.83
2018-03-27T15:20:24.389Z,18.93
2018-03-27T15:22:53.721Z,24.70
2018-03-27T15:25:24.533Z,22.70
2018-03-27T15:27:53.916Z,25.83
2018-03-27T15:30:23.257Z,23.03
2018-03-27T15:32:51.821Z,13.87
2018-03-27T15:35:21.189Z,12.67
2018-03-27T15:37:49.760Z,15.67
2018-03-27T15:40:19.085Z,22.13
2018-03-27T15:42:48.827Z,36.67
2018-03-27T15:45:17.389Z,74.07
2018-03-27T15:47:46.723Z,51.67
2018-03-27T15:50:15.546Z,23.13
2018-03-27T15:52:44.117Z,19.17
2018-03-27T15:55:12.682Z,24.93
2018-03-27T15:57:41.429Z,64.43
2018-03-27T16:00:09.989Z,54.50
2018-03-27T16:02:38.568Z,27.33
2018-03-27T16:05:07.452Z,15.73
2018-03-27T16:07:36.006Z,23.97
2018-03-27T16:10:04.652Z,13.23
2018-03-27T16:12:33.265Z,14.17
2018-03-27T16:15:01.820Z,14.77
2018-03-27T16:17:31.156Z,14.70
2018-03-27T16:19:59.973Z,11.20
2018-03-27T16:22:28.529Z,12.30
2018-03-27T16:24:57.083Z,25.80
2018-03-27T16:27:26.556Z,39.87
2018-03-27T16:29:55.118Z,57.17
2018-03-27T16:32:23.663Z,87.60
2018-03-27T16:34:53.125Z,75.17
2018-03-27T16:37:21.677Z,80.83
2018-03-27T16:39:50.242Z,114.07
2018-03-27T16:42:18.973Z,84.20
2018-03-27T16:44:48.306Z,84.40
2018-03-27T16:47:17.637Z,69.27
2018-03-27T16:49:46.349Z,76.50
2018-03-27T16:52:14.909Z,57.87
2018-03-27T16:54:43.474Z,48.30
2018-03-27T16:57:13.033Z,33.53
2018-03-27T16:59:42.352Z,53.07
2018-03-27T17:02:10.921Z,47.17
2018-03-27T17:04:39.793Z,73.77
2018-03-27T17:07:08.355Z,48.23
2018-03-27T17:09:36.933Z,60.73
2018-03-27T17:12:05.550Z,64.37
2018-03-27T17:14:34.110Z,59.73
2018-03-27T17:17:02.663Z,67.77
2018-03-27T17:19:32.181Z,88.60
2018-03-27T17:22:00.762Z,66.60
2018-03-27T17:24:30.081Z,64.07
2018-03-27T17:26:58.702Z,35.03
2018-03-27T17:29:27.268Z,40.60
2018-03-27T17:31:55.828Z,39.50
2018-03-27T17:34:24.865Z,51.03
2018-03-27T17:36:53.531Z,51.57
2018-03-27T17:39:27.533Z,54.60
2018-03-27T17:41:56.108Z,51.53
2018-03-27T17:44:24.717Z,257.17
2018-03-27T17:46:53.329Z,200.53
2018-03-27T17:49:22.669Z,194.87
2018-03-27T17:51:51.225Z,168.27
2018-03-27T17:54:20.798Z,160.00
2018-03-27T17:56:49.377Z,171.90
2018-03-27T17:59:17.945Z,163.70
2018-03-27T18:01:46.746Z,239.37
2018-03-27T18:04:15.301Z,95.33
2018-03-27T18:06:43.857Z,174.53
2018-03-27T18:09:13.229Z,80.97
2018-03-27T18:11:41.803Z,60.00
2018-03-27T18:14:10.353Z,50.70
2018-03-27T18:16:38.963Z,45.93
2018-03-27T18:19:09.150Z,42.07
2018-03-27T18:21:37.710Z,46.20
2018-03-27T18:24:07.078Z,21.93
2018-03-27T18:26:35.633Z,14.63
2018-03-27T18:29:04.192Z,13.67
2018-03-27T18:31:33.571Z,15.20
2018-03-27T18:34:02.941Z,16.77
2018-03-27T18:36:31.485Z,16.40
2018-03-27T18:39:00.086Z,17.30
2018-03-27T18:41:28.641Z,13.23
2018-03-27T18:43:57.946Z,11.43
2018-03-27T18:46:26.557Z,28.00
2018-03-27T18:48:55.369Z,29.10
2018-03-27T18:51:23.916Z,16.17
2018-03-27T18:53:52.833Z,21.40
2018-03-27T18:56:21.385Z,68.63
2018-03-27T18:58:49.944Z,67.43
2018-03-27T19:01:19.708Z,15.10
2018-03-27T19:03:49.214Z,19.83
2018-03-27T19:06:17.770Z,17.87
2018-03-27T19:08:46.687Z,18.63
2018-03-27T19:11:15.244Z,27.63
2018-03-27T19:13:43.790Z,30.60
2018-03-27T19:16:13.169Z,19.33
2018-03-27T19:18:41.733Z,18.40
2018-03-27T19:21:10.294Z,20.30
2018-03-27T19:23:38.961Z,17.90
2018-03-27T19:26:07.517Z,18.93
2018-03-27T19:28:36.077Z,21.63
2018-03-27T19:31:05.653Z,30.07
2018-03-27T19:33:34.205Z,29.10
2018-03-27T19:36:02.758Z,29.47
2018-03-27T19:38:32.121Z,27.87
2018-03-27T19:41:00.677Z,24.23
2018-03-27T19:43:29.234Z,25.93
2018-03-27T19:45:57.936Z,20.90
2018-03-27T19:48:26.492Z,20.17
2018-03-27T19:50:55.810Z,25.33
2018-03-27T19:53:24.743Z,74.30
2018-03-27T19:55:53.301Z,24.07
2018-03-27T19:58:21.871Z,25.70
2018-03-27T20:00:50.535Z,25.30
2018-03-27T20:03:19.861Z,24.33
2018-03-27T20:05:48.439Z,18.83
2018-03-27T20:08:17.058Z,21.67
2018-03-27T20:10:45.633Z,22.10
2018-03-27T20:13:14.189Z,23.40
2018-03-27T20:15:42.784Z,23.90
2018-03-27T20:18:11.342Z,38.37
2018-03-27T20:20:40.656Z,20.63
2018-03-27T20:23:09.345Z,19.87
2018-03-27T20:25:37.893Z,19.10
2018-03-27T20:28:07.963Z,22.00
2018-03-27T20:30:36.923Z,31.10
2018-03-27T20:33:06.256Z,19.43
2018-03-27T20:35:34.817Z,21.43
2018-03-27T20:38:03.642Z,24.17
2018-03-27T20:40:32.197Z,24.77
2018-03-27T20:43:00.749Z,36.57
2018-03-27T20:45:30.135Z,23.80
2018-03-27T20:47:58.694Z,29.43
2018-03-27T20:50:27.254Z,23.67
2018-03-27T20:52:56.069Z,24.63
2018-03-27T20:55:24.620Z,78.07
2018-03-27T20:57:53.115Z,86.80
2018-03-27T21:00:21.913Z,48.33
2018-03-27T21:02:50.404Z,33.87
2018-03-27T21:05:18.898Z,33.37
2018-03-27T21:07:47.533Z,63.93
2018-03-27T21:10:16.117Z,85.80
2018-03-27T21:12:44.673Z,94.40
2018-03-27T21:15:14.060Z,91.57
2018-03-27T21:17:42.725Z,114.20
2018-03-27T21:20:11.278Z,113.63
2018-03-27T21:22:40.080Z,107.63
2018-03-27T21:25:08.515Z,68.13
2018-03-27T21:27:37.745Z,43.47
2018-03-27T21:30:06.234Z,25.60
2018-03-27T21:32:34.680Z,21.77
2018-03-27T21:35:03.905Z,20.10
2018-03-27T21:37:32.595Z,24.90
2018-03-27T21:40:01.019Z,20.53
2018-03-27T21:42:29.448Z,15.83
2018-03-27T21:44:57.911Z,21.87
2018-03-27T21:47:27.110Z,18.17
2018-03-27T21:49:56.360Z,15.00
2018-03-27T21:52:24.897Z,18.50
2018-03-27T21:54:53.392Z,20.00
2018-03-27T21:57:21.883Z,18.07
2018-03-27T21:59:50.420Z,18.30
2018-03-27T22:02:19.708Z,18.40
2018-03-27T22:04:48.261Z,19.03
2018-03-27T22:07:16.989Z,18.30
2018-03-27T22:09:46.251Z,21.37
2018-03-27T22:12:14.804Z,21.53
2018-03-27T22:14:43.760Z,18.70
2018-03-27T22:17:13.756Z,21.47
2018-03-27T22:19:42.252Z,19.93
2018-03-27T22:22:10.816Z,23.13
2018-03-27T22:24:39.304Z,20.33
2018-03-27T22:27:07.804Z,23.10
2018-03-27T22:29:37.109Z,23.53
2018-03-27T22:32:06.440Z,23.23
2018-03-27T22:34:34.948Z,25.90
2018-03-27T22:37:03.494Z,32.93
2018-03-27T22:39:32.045Z,25.87
2018-03-27T22:42:00.602Z,30.73
2018-03-27T22:44:29.204Z,22.87
2018-03-27T22:46:57.782Z,25.57
2018-03-27T22:49:26.336Z,27.40
2018-03-27T22:51:55.252Z,26.57
2018-03-27T22:54:23.748Z,27.77
2018-03-27T22:56:52.238Z,25.40
2018-03-27T22:59:21.547Z,28.10
2018-03-27T23:01:50.800Z,26.77
2018-03-27T23:04:19.292Z,20.77
2018-03-27T23:06:47.844Z,25.50
2018-03-27T23:09:16.337Z,22.93
2018-03-27T23:11:44.832Z,21.37
2018-03-27T23:14:13.755Z,20.83
2018-03-27T23:16:43.818Z,20.17
2018-03-27T23:19:12.308Z,18.20
2018-03-27T23:21:41.002Z,18.53
2018-03-27T23:24:09.566Z,21.63
2018-03-27T23:26:38.120Z,16.23
2018-03-27T23:29:07.056Z,18.00
2018-03-27T23:31:35.675Z,15.60
2018-03-27T23:34:04.229Z,16.60
2018-03-27T23:36:32.835Z,15.23
2018-03-27T23:39:01.392Z,17.00
2018-03-27T23:41:29.951Z,14.23
2018-03-27T23:43:58.568Z,17.50
2018-03-27T23:46:27.124Z,17.57
2018-03-27T23:48:55.681Z,19.47
2018-03-27T23:51:24.324Z,17.83
2018-03-27T23:53:52.888Z,14.77
2018-03-27T23:56:21.437Z,16.20
2018-03-27T23:58:50.272Z,15.33
